Bradley, ME

2:20 PM EDT on July 31, 2015 (GMT -0400)
MesoWest | | Change Station
CLOSE
Current Station
Personal Weather Station
Location: Old Town, ME
Elevation: 127 ft
Nearby Weather Stations

Elev 127 ft 44.95 °N, 68.67 °W | Updated 35 minutes ago

Partly Cloudy
Partly Cloudy
83 °F
Feels Like 83 °F
N
3
Wind Variable Wind from NNW
Gusts 11.0 mph

Today
High -- | Low -- °F
--% Chance of Precip.
Yesterday
High -- | Low -- °F
Precip. -- in
5:18 AM 8:02 PM
Full, 100% visible
Pressure 29.67 in
Visibility 10.0 miles
Clouds Scattered Clouds 5500 ft
Heat Index 83 °F
Dew Point 60 °F
Humidity 46%
Rainfall in
Snow Depth Not available.
UV 8 out of 12
Pollen 4.80 out of 12
Air Quality Not available.
Flu Activity Not available.
METAR KBGR 311753Z 29011G19KT 10SM SCT055 28/13 A2968 RMK AO2 SLP047 T02780128 10283 20222 56007

More Conditions Fewer Conditions

Pressure 29.67 in
Visibility 10.0 miles
Clouds Scattered Clouds 5500 ft
Heat Index 83 °F
Dew Point 60 °F
Humidity 46%
Rainfall in
Snow Depth Not available.
UV 8 out of 12
Pollen 4.80 out of 12
Air Quality Not available.
Flu Activity Not available.
METAR KBGR 311753Z 29011G19KT 10SM SCT055 28/13 A2968 RMK AO2 SLP047 T02780128 10283 20222 56007

More Conditions Fewer Conditions

10-Day Weather Forecast

×

Almanac

Astronomy

Jul. 31, 2015 Rise Set
Actual Time
Civil Twilight
Nautical Twilight
Astronomical Twilight
Moon
Length of Visible Light
Length of Day
Tomorrow will be .
, % of the Moon is Illuminated

Today's Extremes

State Highs State Lows

Community

WunderPhotos

Upload Photos

1,842,707 photos uploaded!

WunderBlogs® & News

Nearby

Air Quality

  Air Quality AQ Index Pollutant
Not available.

Snow Depth

Station Depth Elevation

Earthquake Activity

City Distance Mag. Time & Date
Minimum magnitude displayed is 2.5.

Coastal Water Temperatures

Place Temperature

Stations

Nearby Weather Stations

Station Location Temp. Windchill Dew Point Humidity Wind Precip. Elev Updated Type